Lucketts, Virginia
Current Conditions -  °F | °C
As of 1:55 PM on Thursday 23 Oct 2014 (Local Time) from KJYO Reporting Station
Broken Clouds Broken Clouds  
Wind Chill: 64°   Ceiling: 4500
Heat Index: 64°   Visibility: 10mi
Dew Point: 48°   Wind: 20mph
Humidity: 56%   Direction: 340°NNW
Pressure: 29.89"   Gusts: 32mph
Location:  39.1846°N, 77.5476°W
Report Text: KJYO 231755Z AUTO 34017G28KT 10SM BKN045 18/09 A2989 RMK AO2
Loading
Personal Weather Stations






























Interactive Weather Map
Tropical Storm Tracking
New forecast layout! Learn more

10-Day Weather Forecast

Advertisements
Track Severe Weather on mobile